createdAt,value
2019-02-23T00:02:23.704Z,99.90
2019-02-23T00:04:50.972Z,99.90
2019-02-23T00:07:18.244Z,99.90
2019-02-23T00:09:45.495Z,99.90
2019-02-23T00:12:12.848Z,99.90
2019-02-23T00:14:40.123Z,99.90
2019-02-23T00:17:07.428Z,99.90
2019-02-23T00:19:34.762Z,99.90
2019-02-23T00:22:02.100Z,99.90
2019-02-23T00:24:29.433Z,99.90
2019-02-23T00:26:56.747Z,99.90
2019-02-23T00:29:24.000Z,99.90
2019-02-23T00:31:51.341Z,99.90
2019-02-23T00:34:18.701Z,99.90
2019-02-23T00:36:45.969Z,99.90
2019-02-23T00:39:13.317Z,99.90
2019-02-23T00:41:40.597Z,99.90
2019-02-23T00:44:07.870Z,99.90
2019-02-23T00:46:35.202Z,99.90
2019-02-23T00:49:02.436Z,99.90
2019-02-23T00:51:29.660Z,99.90
2019-02-23T00:53:56.919Z,99.90
2019-02-23T00:56:24.155Z,99.90
2019-02-23T00:58:51.391Z,99.90
2019-02-23T01:01:18.699Z,99.90
2019-02-23T01:03:46.044Z,99.90
2019-02-23T01:06:13.324Z,99.90
2019-02-23T01:08:42.643Z,99.90
2019-02-23T01:11:09.914Z,99.90
2019-02-23T01:13:37.577Z,99.90
2019-02-23T01:16:05.297Z,99.90
2019-02-23T01:18:33.016Z,99.90
2019-02-23T01:21:00.762Z,99.90
2019-02-23T01:23:28.412Z,99.90
2019-02-23T01:25:56.129Z,99.90
2019-02-23T01:28:23.464Z,99.90
2019-02-23T01:30:50.753Z,99.90
2019-02-23T01:33:18.013Z,99.90
2019-02-23T01:35:45.301Z,99.90
2019-02-23T01:38:12.556Z,99.90
2019-02-23T01:40:39.806Z,99.90
2019-02-23T01:43:07.054Z,99.90
2019-02-23T01:45:42.384Z,99.90
2019-02-23T01:48:04.584Z,99.90
2019-02-23T01:50:31.904Z,99.90
2019-02-23T01:52:59.204Z,99.90
2019-02-23T01:55:26.479Z,99.90
2019-02-23T01:57:53.780Z,99.90
2019-02-23T02:00:21.244Z,99.90
2019-02-23T02:02:48.559Z,99.90
2019-02-23T02:05:15.879Z,99.90
2019-02-23T02:07:43.132Z,99.90
2019-02-23T02:10:11.103Z,99.90
2019-02-23T02:12:38.349Z,99.90
2019-02-23T02:15:08.061Z,99.90
2019-02-23T02:17:35.361Z,99.90
2019-02-23T02:20:10.498Z,99.90
2019-02-23T02:22:31.956Z,99.90
2019-02-23T02:24:59.179Z,99.90
2019-02-23T02:27:26.436Z,99.90
2019-02-23T02:29:53.663Z,99.90
2019-02-23T02:32:20.978Z,99.90
2019-02-23T02:34:48.292Z,99.90
2019-02-23T02:37:15.520Z,99.90
2019-02-23T02:39:42.820Z,99.90
2019-02-23T02:42:10.266Z,99.90
2019-02-23T02:44:37.507Z,99.90
2019-02-23T02:47:04.904Z,99.90
2019-02-23T02:49:32.343Z,99.90
2019-02-23T02:51:59.697Z,99.90
2019-02-23T02:54:26.942Z,99.90
2019-02-23T02:56:54.192Z,99.90
2019-02-23T02:59:21.440Z,99.90
2019-02-23T03:01:48.729Z,99.90
2019-02-23T03:04:16.057Z,99.90
2019-02-23T03:06:43.315Z,99.90
2019-02-23T03:09:11.683Z,99.90
2019-02-23T03:11:39.193Z,99.90
2019-02-23T03:14:06.444Z,99.90
2019-02-23T03:16:33.791Z,99.90
2019-02-23T03:19:01.111Z,99.90
2019-02-23T03:21:28.460Z,99.90
2019-02-23T03:23:55.694Z,99.90
2019-02-23T03:26:23.056Z,99.90
2019-02-23T03:28:50.402Z,99.90
2019-02-23T03:31:17.718Z,99.90
2019-02-23T03:33:45.017Z,99.90
2019-02-23T03:36:12.344Z,99.90
2019-02-23T03:38:39.629Z,99.90
2019-02-23T03:41:06.980Z,99.90
2019-02-23T03:43:34.215Z,99.90
2019-02-23T03:46:01.455Z,99.90
2019-02-23T03:48:28.749Z,99.90
2019-02-23T03:50:55.989Z,99.90
2019-02-23T03:53:23.263Z,99.90
2019-02-23T03:55:50.561Z,99.90
2019-02-23T03:58:17.980Z,99.90
2019-02-23T04:00:45.237Z,99.90
2019-02-23T04:03:12.528Z,99.90
2019-02-23T04:05:39.771Z,99.90
2019-02-23T04:08:07.008Z,99.90
2019-02-23T04:10:34.250Z,99.90
2019-02-23T04:13:01.525Z,99.90
2019-02-23T04:15:28.927Z,99.90
2019-02-23T04:17:56.299Z,99.90
2019-02-23T04:20:23.545Z,99.90
2019-02-23T04:22:50.802Z,99.90
2019-02-23T04:25:18.023Z,99.90
2019-02-23T04:27:45.305Z,99.90
2019-02-23T04:30:12.641Z,99.90
2019-02-23T04:32:39.905Z,99.90
2019-02-23T04:35:07.177Z,99.90
2019-02-23T04:37:34.530Z,99.90
2019-02-23T04:40:01.785Z,99.90
2019-02-23T04:42:29.036Z,99.90
2019-02-23T04:44:56.315Z,99.90
2019-02-23T04:47:23.549Z,99.90
2019-02-23T04:49:53.315Z,99.90
2019-02-23T04:52:20.694Z,99.90
2019-02-23T04:54:47.934Z,99.90
2019-02-23T04:57:15.211Z,99.90
2019-02-23T04:59:42.460Z,99.90
2019-02-23T05:02:09.824Z,99.90
2019-02-23T05:04:37.113Z,99.90
2019-02-23T05:07:04.410Z,99.90
2019-02-23T05:09:31.748Z,99.90
2019-02-23T05:11:58.984Z,99.90
2019-02-23T05:14:26.319Z,99.90
2019-02-23T05:16:53.591Z,99.90
2019-02-23T05:19:20.914Z,99.90
2019-02-23T05:21:48.341Z,99.90
2019-02-23T05:24:15.596Z,99.90
2019-02-23T05:26:42.858Z,99.90
2019-02-23T05:29:10.109Z,99.90
2019-02-23T05:31:37.463Z,99.90
2019-02-23T05:34:04.727Z,99.90
2019-02-23T05:36:31.991Z,99.90
2019-02-23T05:38:59.257Z,99.90
2019-02-23T05:41:26.495Z,99.90
2019-02-23T05:43:53.770Z,99.90
2019-02-23T05:46:21.003Z,99.90
2019-02-23T05:48:48.337Z,99.90
2019-02-23T05:51:16.288Z,99.90
2019-02-23T05:53:43.599Z,99.90
2019-02-23T05:56:15.139Z,99.90
2019-02-23T05:58:40.118Z,99.90
2019-02-23T06:01:07.412Z,99.90
2019-02-23T06:03:34.948Z,99.90
2019-02-23T06:06:02.293Z,99.90
2019-02-23T06:08:29.584Z,99.90
2019-02-23T06:10:56.827Z,99.90
2019-02-23T06:13:24.083Z,99.90
2019-02-23T06:15:51.438Z,99.90
2019-02-23T06:18:18.708Z,99.90
2019-02-23T06:20:45.959Z,99.90
2019-02-23T06:23:13.222Z,99.90
2019-02-23T06:25:40.458Z,99.90
2019-02-23T06:28:07.691Z,99.90
2019-02-23T06:30:34.959Z,99.90
2019-02-23T06:33:02.188Z,99.90
2019-02-23T06:35:29.456Z,99.90
2019-02-23T06:37:56.725Z,99.90
2019-02-23T06:40:23.974Z,99.90
2019-02-23T06:42:51.256Z,99.90
2019-02-23T06:45:18.490Z,99.90
2019-02-23T06:47:45.741Z,99.90
2019-02-23T06:50:13.072Z,99.90
2019-02-23T06:52:40.435Z,99.90
2019-02-23T06:55:07.720Z,99.90
2019-02-23T06:57:34.959Z,99.90
2019-02-23T07:00:02.313Z,99.90
2019-02-23T07:02:29.558Z,99.90
2019-02-23T07:04:59.658Z,99.90
2019-02-23T07:07:26.953Z,99.90
2019-02-23T07:09:54.305Z,99.90
2019-02-23T07:12:21.562Z,99.90
2019-02-23T07:14:48.799Z,99.90
2019-02-23T07:17:16.057Z,99.90
2019-02-23T07:19:43.298Z,99.90
2019-02-23T07:22:15.440Z,99.90
2019-02-23T07:24:39.799Z,99.90
2019-02-23T07:27:07.144Z,99.90
2019-02-23T07:29:34.387Z,99.90
2019-02-23T07:32:01.998Z,99.90
2019-02-23T07:34:30.325Z,99.90
2019-02-23T07:36:57.671Z,99.90
2019-02-23T07:39:25.079Z,99.90
2019-02-23T07:41:52.393Z,99.90
2019-02-23T07:44:19.864Z,99.90
2019-02-23T07:46:47.136Z,99.90
2019-02-23T07:49:14.667Z,99.90
2019-02-23T07:51:42.106Z,99.90
2019-02-23T07:54:09.452Z,99.90
2019-02-23T07:56:36.727Z,99.90
2019-02-23T07:59:04.442Z,99.90
2019-02-23T08:01:31.799Z,99.90
2019-02-23T08:03:59.067Z,99.90
2019-02-23T08:06:26.418Z,99.90
2019-02-23T08:08:53.668Z,99.90
2019-02-23T08:11:20.913Z,99.90
2019-02-23T08:13:48.187Z,99.90
2019-02-23T08:16:15.442Z,99.90
2019-02-23T08:18:42.675Z,99.90
2019-02-23T08:21:09.919Z,99.90
2019-02-23T08:23:37.147Z,99.90
2019-02-23T08:26:04.414Z,99.90
2019-02-23T08:28:31.701Z,99.90
2019-02-23T08:30:59.011Z,99.90
2019-02-23T08:33:26.620Z,99.90
2019-02-23T08:35:53.859Z,99.90
2019-02-23T08:38:21.119Z,99.90
2019-02-23T08:40:48.364Z,99.90
2019-02-23T08:43:15.692Z,99.90
2019-02-23T08:45:43.140Z,99.90
2019-02-23T08:48:10.384Z,99.90
2019-02-23T08:50:37.676Z,99.90
2019-02-23T08:53:05.038Z,99.90
2019-02-23T08:55:32.443Z,99.90
2019-02-23T08:57:59.755Z,99.90
2019-02-23T09:00:27.103Z,99.90
2019-02-23T09:02:54.383Z,99.90
2019-02-23T09:05:21.779Z,99.90
2019-02-23T09:07:49.131Z,99.90
2019-02-23T09:10:16.406Z,99.90
2019-02-23T09:12:55.899Z,99.90
2019-02-23T09:15:23.197Z,99.90
2019-02-23T09:17:50.442Z,99.90
2019-02-23T09:20:28.256Z,99.90
2019-02-23T09:22:46.963Z,99.90
2019-02-23T09:25:14.295Z,99.90
2019-02-23T09:27:41.598Z,99.90
2019-02-23T09:30:08.960Z,99.90
2019-02-23T09:32:36.222Z,99.90
2019-02-23T09:35:03.689Z,99.90
2019-02-23T09:37:31.001Z,99.90
2019-02-23T09:39:58.311Z,99.90
2019-02-23T09:42:25.603Z,99.90
2019-02-23T09:44:53.015Z,99.90
2019-02-23T09:47:20.289Z,99.90
2019-02-23T09:49:47.567Z,99.90
2019-02-23T09:52:14.841Z,99.90
2019-02-23T09:54:42.136Z,99.90
2019-02-23T09:57:09.500Z,99.90
2019-02-23T09:59:36.806Z,99.90
2019-02-23T10:02:04.064Z,99.90
2019-02-23T10:04:31.410Z,99.90
2019-02-23T10:06:58.777Z,99.90
2019-02-23T10:09:26.135Z,99.90
2019-02-23T10:11:53.539Z,99.90
2019-02-23T10:14:20.852Z,99.90
2019-02-23T10:16:48.110Z,99.90
2019-02-23T10:19:15.437Z,99.90
2019-02-23T10:21:42.780Z,99.90
2019-02-23T10:24:10.028Z,99.90
2019-02-23T10:26:37.329Z,99.90
2019-02-23T10:29:04.600Z,99.90
2019-02-23T10:31:32.026Z,99.90
2019-02-23T10:33:59.350Z,99.90
2019-02-23T10:36:26.670Z,99.70
2019-02-23T10:38:54.038Z,99.00
2019-02-23T10:41:21.465Z,98.80
2019-02-23T10:43:48.708Z,98.20
2019-02-23T10:46:15.997Z,98.10
2019-02-23T10:48:43.399Z,97.90
2019-02-23T10:51:10.737Z,97.70
2019-02-23T10:53:38.009Z,97.10
2019-02-23T10:56:05.580Z,98.00
2019-02-23T10:58:33.737Z,97.20
2019-02-23T11:01:03.459Z,97.30
2019-02-23T11:03:31.222Z,96.70
2019-02-23T11:05:58.597Z,94.70
2019-02-23T11:08:26.342Z,93.30
2019-02-23T11:10:53.690Z,91.90
2019-02-23T11:13:21.046Z,90.80
2019-02-23T11:15:50.101Z,88.90
2019-02-23T11:18:19.670Z,87.30
2019-02-23T11:20:49.980Z,86.00
2019-02-23T11:23:18.731Z,81.20
2019-02-23T11:25:46.583Z,78.50
2019-02-23T11:28:21.344Z,79.50
2019-02-23T11:30:49.872Z,79.00
2019-02-23T11:33:21.214Z,80.10
2019-02-23T11:35:50.199Z,78.00
2019-02-23T11:38:23.493Z,76.90
2019-02-23T11:40:56.557Z,77.10
2019-02-23T11:43:24.463Z,76.70
2019-02-23T11:45:52.662Z,77.10
2019-02-23T11:48:21.316Z,78.10
2019-02-23T11:50:50.003Z,79.00
2019-02-23T11:53:18.121Z,78.40
2019-02-23T11:55:47.579Z,77.20
2019-02-23T11:58:14.940Z,76.50
2019-02-23T12:00:42.216Z,77.00
2019-02-23T12:03:09.558Z,76.80
2019-02-23T12:05:37.116Z,76.60
2019-02-23T12:08:04.542Z,76.00
2019-02-23T12:10:32.116Z,74.50
2019-02-23T12:12:59.529Z,75.30
2019-02-23T12:15:26.837Z,76.00
2019-02-23T12:17:54.172Z,75.90
2019-02-23T12:20:21.514Z,76.40
2019-02-23T12:22:48.827Z,76.40
2019-02-23T12:25:16.463Z,76.10
2019-02-23T12:27:43.846Z,76.20
2019-02-23T12:30:11.151Z,76.70
2019-02-23T12:32:38.556Z,76.10
2019-02-23T12:35:06.753Z,76.40
2019-02-23T12:37:34.059Z,75.40
2019-02-23T12:40:01.491Z,75.80
2019-02-23T12:42:28.792Z,75.00
2019-02-23T12:44:56.157Z,76.90
2019-02-23T12:47:23.439Z,76.80
2019-02-23T12:49:50.756Z,77.90
2019-02-23T12:52:24.401Z,78.50
2019-02-23T12:54:51.837Z,79.30
2019-02-23T12:57:19.158Z,77.50
2019-02-23T12:59:46.522Z,76.40
2019-02-23T13:02:13.843Z,77.80
2019-02-23T13:04:42.089Z,77.60
2019-02-23T13:07:09.877Z,76.90
2019-02-23T13:09:42.336Z,76.20
2019-02-23T13:12:27.182Z,76.30
2019-02-23T13:15:28.347Z,76.70
2019-02-23T13:18:40.807Z,77.70
2019-02-23T13:21:50.352Z,75.60
2019-02-23T13:24:55.779Z,75.70
2019-02-23T13:28:04.779Z,73.80
2019-02-23T13:31:22.981Z,74.80
2019-02-23T13:34:04.789Z,74.60
2019-02-23T13:37:09.979Z,77.60
2019-02-23T13:40:20.645Z,78.20
2019-02-23T13:43:25.993Z,77.70
2019-02-23T13:46:21.488Z,79.80
2019-02-23T13:49:41.334Z,79.50
2019-02-23T13:52:56.465Z,79.90
2019-02-23T13:56:24.276Z,81.60
2019-02-23T13:59:18.126Z,79.30
2019-02-23T14:02:25.379Z,80.00
2019-02-23T14:05:36.878Z,80.50
2019-02-23T14:08:46.977Z,80.90
2019-02-23T14:11:52.085Z,80.30
2019-02-23T14:14:49.022Z,80.80
2019-02-23T14:18:17.474Z,80.30
2019-02-23T14:21:31.829Z,80.60
2019-02-23T14:24:27.195Z,81.90
2019-02-23T14:27:36.666Z,84.00
2019-02-23T14:30:19.045Z,83.70
2019-02-23T14:33:27.342Z,83.90
2019-02-23T14:36:03.906Z,85.20
2019-02-23T14:39:16.015Z,85.50
2019-02-23T14:42:43.990Z,84.60
2019-02-23T14:45:38.942Z,85.60
2019-02-23T14:48:37.425Z,86.50
2019-02-23T14:51:54.387Z,85.50
2019-02-23T14:55:01.210Z,86.70
2019-02-23T14:58:18.125Z,86.40
2019-02-23T15:01:09.984Z,87.00
2019-02-23T15:04:08.952Z,86.50
2019-02-23T15:07:18.501Z,86.90
2019-02-23T15:10:03.127Z,86.30
2019-02-23T15:12:50.204Z,86.60
2019-02-23T15:15:59.664Z,87.90
2019-02-23T15:18:47.932Z,87.90
2019-02-23T15:21:55.256Z,87.50
2019-02-23T15:25:12.762Z,87.30
2019-02-23T15:28:01.385Z,87.60
2019-02-23T15:30:35.281Z,87.50
2019-02-23T15:33:53.439Z,87.50
2019-02-23T15:37:01.051Z,87.30
2019-02-23T15:40:03.057Z,88.10
2019-02-23T15:43:35.054Z,88.50
2019-02-23T15:46:33.489Z,90.10
2019-02-23T15:49:27.496Z,90.10
2019-02-23T15:51:54.954Z,90.60
2019-02-23T15:54:22.306Z,90.30
2019-02-23T15:56:49.623Z,90.40
2019-02-23T15:59:16.988Z,90.70
2019-02-23T16:01:46.408Z,90.60
2019-02-23T16:04:15.339Z,90.10
2019-02-23T16:07:02.613Z,90.30
2019-02-23T16:09:29.955Z,90.90
2019-02-23T16:11:57.219Z,91.10
2019-02-23T16:14:24.534Z,91.10
2019-02-23T16:16:51.796Z,90.90
2019-02-23T16:19:19.056Z,91.30
2019-02-23T16:21:46.363Z,91.60
2019-02-23T16:24:13.592Z,91.20
2019-02-23T16:26:40.957Z,91.50
2019-02-23T16:29:08.200Z,91.60
2019-02-23T16:31:35.447Z,91.80
2019-02-23T16:34:02.699Z,91.80
2019-02-23T16:36:29.941Z,92.00
2019-02-23T16:38:57.199Z,91.90
2019-02-23T16:41:24.439Z,91.90
2019-02-23T16:43:51.727Z,92.30
2019-02-23T16:46:19.045Z,92.00
2019-02-23T16:48:46.373Z,92.00
2019-02-23T16:51:13.717Z,92.40
2019-02-23T16:53:44.190Z,92.60
2019-02-23T16:56:12.083Z,92.80
2019-02-23T16:58:39.507Z,93.10
2019-02-23T17:01:06.810Z,93.10
2019-02-23T17:03:34.355Z,93.10
2019-02-23T17:06:01.645Z,93.50
2019-02-23T17:08:28.937Z,93.30
2019-02-23T17:10:56.911Z,93.50
2019-02-23T17:13:24.274Z,93.50
2019-02-23T17:15:51.579Z,93.20
2019-02-23T17:18:18.826Z,93.60
2019-02-23T17:20:46.176Z,94.10
2019-02-23T17:23:13.630Z,94.10
2019-02-23T17:25:41.316Z,94.10
2019-02-23T17:28:08.690Z,93.80
2019-02-23T17:30:36.054Z,93.90
2019-02-23T17:33:03.391Z,94.10
2019-02-23T17:35:30.682Z,94.10
2019-02-23T17:37:57.949Z,94.20
2019-02-23T17:40:25.445Z,94.90
2019-02-23T17:42:52.903Z,95.10
2019-02-23T17:45:20.212Z,95.10
2019-02-23T17:47:47.668Z,95.80
2019-02-23T17:50:18.069Z,96.30
2019-02-23T17:52:50.159Z,96.00
2019-02-23T17:55:17.531Z,97.40
2019-02-23T17:57:44.828Z,97.10
2019-02-23T18:00:13.940Z,98.00
2019-02-23T18:02:41.184Z,98.70
2019-02-23T18:05:08.644Z,98.40
2019-02-23T18:07:35.943Z,98.20
2019-02-23T18:10:03.273Z,99.90
2019-02-23T18:12:40.672Z,99.90
2019-02-23T18:15:08.433Z,99.90
2019-02-23T18:17:35.857Z,99.90
2019-02-23T18:20:03.463Z,99.90
2019-02-23T18:22:30.780Z,99.90
2019-02-23T18:24:58.031Z,99.90
2019-02-23T18:27:25.302Z,99.90
2019-02-23T18:29:52.556Z,99.90
2019-02-23T18:32:19.952Z,99.90
2019-02-23T18:34:49.316Z,99.90
2019-02-23T18:37:16.672Z,99.90
2019-02-23T18:39:43.936Z,99.90
2019-02-23T18:42:11.163Z,99.90
2019-02-23T18:44:38.429Z,99.90
2019-02-23T18:47:05.759Z,99.90
2019-02-23T18:49:33.027Z,99.90
2019-02-23T18:52:00.335Z,99.90
2019-02-23T18:54:27.771Z,99.90
2019-02-23T18:56:55.120Z,99.90
2019-02-23T18:59:22.441Z,99.90
2019-02-23T19:01:49.807Z,99.90
2019-02-23T19:04:17.096Z,99.90
2019-02-23T19:06:44.400Z,99.90
2019-02-23T19:09:11.755Z,99.90
2019-02-23T19:11:44.119Z,99.90
2019-02-23T19:14:12.283Z,99.90
2019-02-23T19:16:39.816Z,99.90
2019-02-23T19:19:07.049Z,99.90
2019-02-23T19:21:36.680Z,99.90
2019-02-23T19:24:03.996Z,99.90
2019-02-23T19:26:38.033Z,99.90
2019-02-23T19:29:00.507Z,99.90
2019-02-23T19:31:27.782Z,99.90
2019-02-23T19:33:55.304Z,99.90
2019-02-23T19:36:22.645Z,99.90
2019-02-23T19:38:50.003Z,99.90
2019-02-23T19:41:17.429Z,99.90
2019-02-23T19:43:44.716Z,99.90
2019-02-23T19:46:11.953Z,99.90
2019-02-23T19:48:39.219Z,99.90
2019-02-23T19:51:08.220Z,99.90
2019-02-23T19:53:35.648Z,99.90
2019-02-23T19:56:15.661Z,99.90
2019-02-23T19:58:43.348Z,99.90
2019-02-23T20:01:10.592Z,99.90
2019-02-23T20:03:37.860Z,99.90
2019-02-23T20:06:05.112Z,99.90
2019-02-23T20:08:32.488Z,99.90
2019-02-23T20:11:05.576Z,99.90
2019-02-23T20:13:32.828Z,99.90
2019-02-23T20:16:00.164Z,99.90
2019-02-23T20:18:27.515Z,99.90
2019-02-23T20:20:54.811Z,99.90
2019-02-23T20:23:22.172Z,99.90
2019-02-23T20:25:49.407Z,99.90
2019-02-23T20:28:16.807Z,99.90
2019-02-23T20:30:44.072Z,99.90
2019-02-23T20:33:11.355Z,99.90
2019-02-23T20:35:38.615Z,99.90
2019-02-23T20:38:06.041Z,99.90
2019-02-23T20:40:33.411Z,99.90
2019-02-23T20:43:00.723Z,99.90
2019-02-23T20:45:27.995Z,99.90
2019-02-23T20:47:55.367Z,99.90
2019-02-23T20:50:22.712Z,99.90
2019-02-23T20:52:49.989Z,99.90
2019-02-23T20:55:17.920Z,99.90
2019-02-23T20:57:45.213Z,99.90
2019-02-23T21:00:12.467Z,99.90
2019-02-23T21:02:39.732Z,99.90
2019-02-23T21:05:07.639Z,99.90
2019-02-23T21:07:34.880Z,99.90
2019-02-23T21:10:02.559Z,99.90
2019-02-23T21:12:29.899Z,99.90
2019-02-23T21:14:57.274Z,99.90
2019-02-23T21:17:25.913Z,99.90
2019-02-23T21:19:53.354Z,99.90
2019-02-23T21:22:20.650Z,99.90
2019-02-23T21:24:47.941Z,99.90
2019-02-23T21:27:16.265Z,99.90
2019-02-23T21:29:43.523Z,99.90
2019-02-23T21:32:11.150Z,99.90
2019-02-23T21:34:38.435Z,99.90
2019-02-23T21:37:06.108Z,99.90
2019-02-23T21:39:40.513Z,99.90
2019-02-23T21:42:07.946Z,99.90
2019-02-23T21:44:35.291Z,99.90
2019-02-23T21:47:02.656Z,99.90
2019-02-23T21:49:30.056Z,99.90
2019-02-23T21:51:57.479Z,99.90
2019-02-23T21:54:24.828Z,99.90
2019-02-23T21:56:52.406Z,99.90
2019-02-23T21:59:19.803Z,99.90
2019-02-23T22:01:47.531Z,99.90
2019-02-23T22:04:15.079Z,99.90
2019-02-23T22:06:42.685Z,99.90
2019-02-23T22:09:14.137Z,99.90
2019-02-23T22:11:55.455Z,99.90
2019-02-23T22:14:23.018Z,99.90
2019-02-23T22:16:53.752Z,99.90
2019-02-23T22:19:21.516Z,99.90
2019-02-23T22:21:50.950Z,99.90
2019-02-23T22:24:18.701Z,99.90
2019-02-23T22:26:46.309Z,99.90
2019-02-23T22:29:14.204Z,99.90
2019-02-23T22:31:41.602Z,99.90
2019-02-23T22:34:09.142Z,99.90
2019-02-23T22:36:36.642Z,99.90
2019-02-23T22:39:05.370Z,99.90
2019-02-23T22:41:33.657Z,99.90
2019-02-23T22:44:06.875Z,99.90
2019-02-23T22:46:34.333Z,99.90
2019-02-23T22:49:11.032Z,99.90
2019-02-23T22:51:38.810Z,99.90
2019-02-23T22:54:06.364Z,99.90
2019-02-23T22:56:33.946Z,99.90
2019-02-23T22:59:11.702Z,99.90
2019-02-23T23:01:39.433Z,99.90
2019-02-23T23:04:07.436Z,99.90
2019-02-23T23:06:34.992Z,99.90
2019-02-23T23:09:02.927Z,99.90
2019-02-23T23:11:30.498Z,99.90
2019-02-23T23:13:58.094Z,99.90
2019-02-23T23:16:25.799Z,99.90
2019-02-23T23:18:53.393Z,99.90
2019-02-23T23:21:20.952Z,99.90
2019-02-23T23:23:48.468Z,99.90
2019-02-23T23:26:16.128Z,99.90
2019-02-23T23:28:43.841Z,99.90
2019-02-23T23:31:11.204Z,99.90
2019-02-23T23:33:38.467Z,99.90
2019-02-23T23:36:05.699Z,99.90
2019-02-23T23:38:32.928Z,99.90
2019-02-23T23:41:00.163Z,99.90
2019-02-23T23:43:27.497Z,99.90
2019-02-23T23:45:54.753Z,99.90
2019-02-23T23:48:22.022Z,99.90
2019-02-23T23:50:49.380Z,99.90
2019-02-23T23:53:16.635Z,99.90
2019-02-23T23:55:43.875Z,99.90
2019-02-23T23:58:11.244Z,99.90
